Time;durP1;ratioP1;P1;durP2;ratioP2;P2;SDS_P1;SDS_P2;PMS_P1;PMS_P2;Temp;Humidity;BMP_temperature;BMP_pressure;BME280_temperature;BME280_humidity;BME280_pressure;Samples;Min_cycle;Max_cycle;Signal;HPM_P1;HPM_P2
2023/10/16 00:00:48;;;;;;;4.95;4.50;;;;;;;6.59;89.38;102294.41;5086133;28;20031;-65
2023/10/16 00:03:14;;;;;;;8.75;7.85;;;;;;;6.27;90.38;102294.25;5087256;28;20039;-64
2023/10/16 00:05:51;;;;;;;7.32;4.75;;;;;;;6.62;90.53;102295.22;5087895;28;20497;-65
2023/10/16 00:08:18;;;;;;;7.85;5.20;;;;;;;6.69;90.54;102289.75;5088903;28;20066;-65
2023/10/16 00:10:57;;;;;;;9.18;4.90;;;;;;;6.73;89.98;102291.41;5083306;28;20028;-65
2023/10/16 00:13:26;;;;;;;7.53;5.30;;;;;;;6.75;90.41;102286.97;5087944;28;20035;-65
2023/10/16 00:15:55;;;;;;;7.80;4.90;;;;;;;6.73;90.24;102283.47;5072290;28;20097;-65
2023/10/16 00:18:23;;;;;;;8.73;4.72;;;;;;;6.57;89.98;102253.03;5090028;28;20063;-65
2023/10/16 00:20:55;;;;;;;11.23;8.60;;;;;;;6.42;92.28;102287.75;5072007;28;20020;-65
2023/10/16 00:23:30;;;;;;;11.70;8.88;;;;;;;6.39;93.09;102282.53;5070610;28;20106;-65
2023/10/16 00:25:58;;;;;;;10.63;7.78;;;;;;;6.51;93.00;102295.47;5069939;28;20020;-65
2023/10/16 00:28:23;;;;;;;6.45;4.78;;;;;;;6.72;92.34;102286.16;5087946;28;20035;-65
2023/10/16 00:30:50;;;;;;;8.30;4.60;;;;;;;6.77;92.15;102286.94;5070376;28;20028;-65
2023/10/16 00:33:18;;;;;;;8.43;5.40;;;;;;;6.82;92.50;102279.75;5086595;28;20107;-65
2023/10/16 00:35:48;;;;;;;11.65;8.77;;;;;;;6.53;93.70;102281.31;5091084;28;20023;-65
2023/10/16 00:38:14;;;;;;;9.40;5.22;;;;;;;6.82;93.45;102279.75;5091661;28;20111;-65
2023/10/16 00:40:51;;;;;;;9.70;5.35;;;;;;;6.84;92.52;102275.28;5053113;28;20181;-65
2023/10/16 00:43:20;;;;;;;6.75;4.93;;;;;;;6.94;92.74;102279.47;5091118;28;20032;-65
2023/10/16 00:45:59;;;;;;;7.40;5.32;;;;;;;6.97;93.24;102281.13;5093980;28;20028;-65
2023/10/16 00:48:25;;;;;;;7.53;5.32;;;;;;;6.97;93.38;102284.69;5093558;28;20020;-65
2023/10/16 00:50:51;;;;;;;9.82;4.90;;;;;;;6.99;93.07;102285.50;5075413;28;20109;-65
2023/10/16 00:53:26;;;;;;;8.68;7.85;;;;;;;6.80;93.92;102284.22;5096394;28;20055;-65
2023/10/16 00:55:55;;;;;;;7.50;4.88;;;;;;;6.98;93.26;102281.13;5091445;28;20431;-65
2023/10/16 00:58:21;;;;;;;8.57;5.18;;;;;;;6.97;92.71;102281.13;5093170;28;20051;-65
2023/10/16 01:00:48;;;;;;;11.65;7.70;;;;;;;6.64;93.74;102277.53;5093310;28;20038;-64
2023/10/16 01:03:16;;;;;;;6.65;4.90;;;;;;;6.88;93.20;102282.22;5075057;28;20024;-65
2023/10/16 01:05:42;;;;;;;8.98;5.20;;;;;;;6.77;93.00;102263.16;5093769;28;20031;-65
2023/10/16 01:08:10;;;;;;;5.80;5.30;;;;;;;6.82;92.71;102275.34;5075296;28;20593;-65
2023/10/16 01:10:41;;;;;;;9.73;8.43;;;;;;;6.57;94.33;102271.53;5090807;28;20487;-65
2023/10/16 01:13:12;;;;;;;13.63;8.75;;;;;;;6.44;95.10;102276.25;5074315;28;20494;-65
2023/10/16 01:15:46;;;;;;;6.32;5.13;;;;;;;6.73;93.82;102282.59;5093103;28;20020;-64
2023/10/16 01:18:17;;;;;;;7.40;5.75;;;;;;;6.72;93.46;102267.66;5093200;28;20520;-65
2023/10/16 01:20:47;;;;;;;6.55;5.68;;;;;;;6.68;93.57;102255.44;5070746;28;20024;-65
2023/10/16 01:23:18;;;;;;;9.38;8.57;;;;;;;6.36;93.95;102262.34;5091036;28;20174;-65
2023/10/16 01:25:47;;;;;;;10.10;5.55;;;;;;;6.58;94.18;102250.34;5071184;28;20056;-65
2023/10/16 01:28:15;;;;;;;8.98;7.93;;;;;;;6.44;94.35;102268.31;5072419;28;20058;-65
2023/10/16 01:30:42;;;;;;;10.38;8.57;;;;;;;6.37;95.40;102261.41;5091590;28;20023;-65
2023/10/16 01:33:07;;;;;;;6.50;5.50;;;;;;;6.55;94.53;102242.50;5091595;28;20134;-65
2023/10/16 01:35:36;;;;;;;8.00;5.47;;;;;;;6.68;93.95;102260.72;5091795;28;20099;-65
2023/10/16 01:38:14;;;;;;;7.70;6.47;;;;;;;6.66;94.30;102257.25;5085666;28;20029;-65
2023/10/16 01:40:47;;;;;;;6.80;5.40;;;;;;;6.73;94.65;102256.16;5088752;28;20474;-65
2023/10/16 01:43:15;;;;;;;12.27;5.75;;;;;;;6.71;94.26;102253.59;5073860;28;20028;-65
2023/10/16 01:45:49;;;;;;;10.85;5.80;;;;;;;6.77;94.19;102257.84;5090095;28;20035;-65
2023/10/16 01:48:21;;;;;;;6.93;5.80;;;;;;;6.80;94.38;102252.50;5090507;28;20766;-65
2023/10/16 01:50:50;;;;;;;10.45;9.20;;;;;;;6.59;95.76;102252.09;5072711;28;20467;-65
2023/10/16 01:53:37;;;;;;;9.82;5.45;;;;;;;6.76;95.65;102249.03;5090247;28;20481;-65
2023/10/16 01:56:14;;;;;;;7.32;5.75;;;;;;;6.82;95.11;102251.56;5087882;28;20024;-65
2023/10/16 01:58:42;;;;;;;12.00;5.82;;;;;;;6.85;95.46;102241.78;5089809;28;20527;-65
2023/10/16 02:01:15;;;;;;;8.68;6.10;;;;;;;6.87;95.03;102247.91;5085777;28;20027;-65
2023/10/16 02:03:45;;;;;;;8.88;6.25;;;;;;;6.88;94.99;102252.28;5073174;28;20043;-65
2023/10/16 02:06:20;;;;;;;12.02;9.43;;;;;;;6.69;95.89;102252.75;5071989;28;20024;-64
2023/10/16 02:08:47;;;;;;;7.32;5.88;;;;;;;6.83;95.75;102240.06;5088502;28;20115;-64
2023/10/16 02:11:13;;;;;;;6.95;6.25;;;;;;;6.81;95.06;102244.50;5086720;28;20028;-64
2023/10/16 02:13:40;;;;;;;7.68;5.80;;;;;;;6.79;95.08;102242.78;5091166;28;20024;-65
2023/10/16 02:16:12;;;;;;;17.20;6.22;;;;;;;6.72;94.61;102234.16;5071790;28;20486;-65
2023/10/16 02:18:41;;;;;;;7.13;5.78;;;;;;;6.72;94.64;102242.09;5072411;28;20028;-65
2023/10/16 02:21:14;;;;;;;12.38;6.85;;;;;;;6.63;95.18;102231.75;5072550;28;20051;-65
2023/10/16 02:23:43;;;;;;;9.65;5.72;;;;;;;6.63;94.70;102234.38;5055836;28;20051;-65
2023/10/16 02:26:09;;;;;;;9.10;6.30;;;;;;;6.60;95.03;102224.75;5069420;28;20090;-65
2023/10/16 02:28:41;;;;;;;7.60;5.97;;;;;;;6.58;94.96;102228.34;5089298;28;20426;-65
2023/10/16 02:31:14;;;;;;;8.13;6.25;;;;;;;6.53;94.41;102228.47;5071930;28;20470;-65
2023/10/16 02:33:48;;;;;;;8.18;5.90;;;;;;;6.52;94.57;102229.34;5089356;28;21052;-64
2023/10/16 02:36:14;;;;;;;10.63;9.70;;;;;;;6.10;95.16;102239.13;5072575;28;20019;-65
2023/10/16 02:38:41;;;;;;;6.35;5.75;;;;;;;6.42;95.17;102235.78;5073325;28;20066;-65
2023/10/16 02:41:10;;;;;;;10.00;6.20;;;;;;;6.42;94.20;102232.25;5088045;28;20020;-65
2023/10/16 02:43:41;;;;;;;7.35;6.25;;;;;;;6.38;94.05;102234.09;5073555;28;20032;-65
2023/10/16 02:46:09;;;;;;;9.52;6.28;;;;;;;6.43;94.35;102226.94;5085951;28;20020;-64
2023/10/16 02:48:35;;;;;;;7.10;6.05;;;;;;;6.36;94.12;102213.00;5089187;28;20467;-65
2023/10/16 02:51:02;;;;;;;8.30;6.18;;;;;;;6.43;93.77;102223.41;5070671;28;20020;-65
2023/10/16 02:53:29;;;;;;;10.75;9.68;;;;;;;6.08;94.70;102228.59;5089536;28;20061;-65
2023/10/16 02:55:57;;;;;;;9.88;6.10;;;;;;;6.36;94.53;102225.34;5089334;28;20368;-65
2023/10/16 02:58:26;;;;;;;9.77;6.18;;;;;;;6.30;94.04;102220.19;5086957;28;20036;-65
2023/10/16 03:00:56;;;;;;;13.23;5.90;;;;;;;6.32;93.92;102229.84;5089791;28;20056;-64
2023/10/16 03:03:26;;;;;;;7.30;6.57;;;;;;;6.35;93.90;102223.59;5068937;28;20825;-64
2023/10/16 03:05:56;;;;;;;13.38;6.18;;;;;;;6.30;94.14;102221.06;5068684;28;20034;-65
2023/10/16 03:08:30;;;;;;;7.50;6.25;;;;;;;6.34;94.17;102232.44;5088004;28;20028;-65
2023/10/16 03:10:59;;;;;;;9.60;6.82;;;;;;;6.32;94.58;102235.13;5083270;28;20425;-65
2023/10/16 03:13:25;;;;;;;8.00;6.10;;;;;;;6.32;94.57;102228.94;5069392;28;20050;-65
2023/10/16 03:15:59;;;;;;;11.00;6.20;;;;;;;6.23;94.61;102211.53;5089951;28;20479;-65
2023/10/16 03:18:25;;;;;;;8.55;6.00;;;;;;;6.30;94.29;102222.84;5087419;28;20036;-65
2023/10/16 03:21:05;;;;;;;11.57;10.50;;;;;;;6.01;96.26;102226.13;5088120;28;20035;-64
2023/10/16 03:23:31;;;;;;;9.32;6.32;;;;;;;6.23;95.30;102224.72;5089261;28;20031;-64
2023/10/16 03:25:59;;;;;;;9.80;6.53;;;;;;;6.24;94.45;102220.34;5089869;28;20026;-65
2023/10/16 03:28:24;;;;;;;12.65;9.52;;;;;;;5.91;95.78;102212.22;5088825;28;20032;-65
2023/10/16 03:30:50;;;;;;;10.40;6.00;;;;;;;6.17;94.98;102224.00;5090197;28;20028;-65
2023/10/16 03:33:15;;;;;;;11.38;7.15;;;;;;;6.12;94.73;102216.22;5087687;28;20034;-65
2023/10/16 03:35:44;;;;;;;7.20;6.15;;;;;;;6.12;94.13;102230.28;5085697;28;20028;-65
2023/10/16 03:38:11;;;;;;;11.52;6.65;;;;;;;6.10;94.26;102225.94;5086979;28;20028;-65
2023/10/16 03:40:36;;;;;;;9.65;5.85;;;;;;;6.07;93.86;102216.31;5086607;28;20020;-65
2023/10/16 03:43:02;;;;;;;13.93;6.38;;;;;;;6.06;93.88;102219.84;5083572;28;20051;-64
2023/10/16 03:45:31;;;;;;;8.60;5.65;;;;;;;6.03;93.56;102219.94;5071473;28;20020;-64
2023/10/16 03:47:57;;;;;;;11.32;10.13;;;;;;;5.67;94.83;102210.97;5088549;28;20012;-65
2023/10/16 03:50:34;;;;;;;7.50;6.22;;;;;;;5.92;94.39;102216.63;5085371;28;20056;-64
2023/10/16 03:53:01;;;;;;;12.02;7.82;;;;;;;5.92;93.83;102220.13;5087231;28;20054;-65
2023/10/16 03:55:28;;;;;;;16.42;6.22;;;;;;;5.81;94.12;102208.91;5067818;28;20472;-65
2023/10/16 03:57:56;;;;;;;9.27;6.28;;;;;;;5.87;94.11;102219.34;5088042;28;20056;-64
2023/10/16 04:00:33;;;;;;;8.10;6.97;;;;;;;5.81;93.32;102208.91;5090343;28;20448;-65
2023/10/16 04:02:59;;;;;;;8.90;6.90;;;;;;;5.81;93.49;102214.19;5072312;28;20089;-65
2023/10/16 04:05:45;;;;;;;9.93;6.28;;;;;;;5.81;93.53;102221.25;5090149;28;20055;-65
2023/10/16 04:08:10;;;;;;;9.00;7.63;;;;;;;5.80;92.90;102214.25;5090014;28;20016;-65
2023/10/16 04:10:36;;;;;;;7.78;6.32;;;;;;;5.75;92.97;102206.41;5071468;28;20039;-65
2023/10/16 04:13:04;;;;;;;8.18;5.80;;;;;;;5.75;93.41;102211.69;5089603;28;20023;-65
2023/10/16 04:31:45;;;;;;;7.17;6.30;;;;;;;5.59;93.92;102195.31;5067450;28;20495;-65
2023/10/16 04:34:24;;;;;;;8.50;5.83;;;;;;;5.57;93.62;102193.59;5069261;28;20050;-65
2023/10/16 05:06:38;;;;;;;7.03;6.35;;;;;;;5.50;93.88;102168.22;5089857;28;20398;-65
2023/10/16 05:17:22;;;;;;;9.75;6.72;;;;;;;5.65;95.17;102168.78;5087363;28;20042;-64
2023/10/16 05:19:53;;;;;;;11.88;6.85;;;;;;;5.66;94.42;102169.66;5070997;28;20562;-65
2023/10/16 06:14:17;;;;;;;10.48;6.75;;;;;;;5.99;97.27;102172.47;5051327;28;20396;-65
2023/10/16 06:17:12;;;;;;;12.98;11.65;;;;;;;5.94;98.50;102175.22;5048526;28;20025;-65
2023/10/16 06:19:42;;;;;;;8.20;6.35;;;;;;;6.04;97.79;102170.63;5046134;28;20472;-64
2023/10/16 06:22:08;;;;;;;15.43;6.97;;;;;;;5.99;97.53;102161.91;5049230;28;20044;-65
2023/10/16 06:24:35;;;;;;;10.50;6.78;;;;;;;6.06;97.48;102163.50;5046123;28;20024;-65
2023/10/16 06:27:09;;;;;;;11.90;6.80;;;;;;;6.05;97.28;102162.63;5051042;28;20029;-64
2023/10/16 06:29:53;;;;;;;10.65;7.72;;;;;;;6.01;97.67;102160.97;5050079;28;20096;-64
2023/10/16 06:32:25;;;;;;;10.95;7.90;;;;;;;6.04;96.94;102168.84;5046049;28;20545;-64
2023/10/16 06:34:57;;;;;;;12.20;7.57;;;;;;;6.04;97.41;102171.47;5044694;28;20028;-65
2023/10/16 06:37:27;;;;;;;12.32;11.13;;;;;;;5.79;98.14;102173.75;5048869;28;20635;-65
2023/10/16 06:39:54;;;;;;;8.65;6.78;;;;;;;6.00;97.65;102168.94;5049657;28;20514;-65
2023/10/16 06:42:22;;;;;;;9.93;6.47;;;;;;;6.00;97.40;102167.19;5049888;28;20096;-64
2023/10/16 06:44:54;;;;;;;10.50;6.30;;;;;;;6.05;98.19;102169.69;5052057;28;20021;-65
2023/10/16 06:47:24;;;;;;;7.90;6.40;;;;;;;6.05;97.46;102164.41;5050989;28;20025;-64
2023/10/16 06:49:54;;;;;;;11.32;6.85;;;;;;;6.04;97.32;102163.56;5052726;28;20035;-64
2023/10/16 06:52:19;;;;;;;7.90;6.93;;;;;;;6.08;97.37;102167.84;5052618;28;20029;-65
2023/10/16 06:54:45;;;;;;;10.13;7.53;;;;;;;6.11;97.11;102169.56;5051994;28;20095;-64
2023/10/16 06:57:13;;;;;;;9.95;7.22;;;;;;;6.13;97.25;102176.53;5052335;28;20063;-65
2023/10/16 06:59:46;;;;;;;8.02;7.25;;;;;;;6.14;97.37;102172.97;5080984;28;20047;-65
2023/10/16 07:02:15;;;;;;;9.77;7.22;;;;;;;6.14;97.67;102174.75;5084283;28;20390;-65
2023/10/16 07:04:49;;;;;;;7.57;6.80;;;;;;;6.18;97.57;102175.56;5092178;28;20059;-64
2023/10/16 07:07:22;;;;;;;12.27;8.88;;;;;;;6.22;97.69;102177.25;5086908;28;20032;-65
2023/10/16 07:09:50;;;;;;;13.13;8.85;;;;;;;6.23;97.26;102174.53;5082708;28;20107;-64
2023/10/16 07:12:19;;;;;;;12.75;8.88;;;;;;;6.21;97.81;102173.72;5091501;28;20034;-64
2023/10/16 07:14:55;;;;;;;15.23;8.45;;;;;;;6.22;97.40;102182.53;5067200;28;20122;-65
2023/10/16 07:17:28;;;;;;;15.02;8.77;;;;;;;6.12;97.55;102161.59;5086950;28;20024;-65
2023/10/16 07:19:59;;;;;;;11.38;8.23;;;;;;;6.20;97.51;102176.41;5059252;28;20032;-64
2023/10/16 07:22:32;;;;;;;19.90;9.52;;;;;;;6.18;97.60;102175.56;5091598;28;20016;-64
2023/10/16 07:25:22;;;;;;;13.32;9.80;;;;;;;6.14;97.63;102175.63;5091501;28;20117;-65
2023/10/16 07:27:47;;;;;;;10.27;8.93;;;;;;;6.17;98.34;102179.97;5080305;28;20024;-64
2023/10/16 07:30:22;;;;;;;13.57;9.05;;;;;;;6.19;98.56;102183.47;5066616;28;20040;-64
2023/10/16 07:32:48;;;;;;;11.77;9.63;;;;;;;6.20;98.08;102174.63;5082888;28;20028;-64
2023/10/16 07:35:17;;;;;;;11.55;9.15;;;;;;;6.29;98.31;102178.81;5070733;28;20100;-64
2023/10/16 07:37:48;;;;;;;12.03;10.03;;;;;;;6.33;98.95;102177.84;5086277;28;20467;-64
2023/10/16 07:40:20;;;;;;;12.82;10.15;;;;;;;6.39;98.43;102176.84;5090768;28;20348;-65
2023/10/16 07:42:47;;;;;;;10.50;9.45;;;;;;;6.41;98.09;102178.50;5089864;28;20027;-65
2023/10/16 07:45:13;;;;;;;12.77;9.88;;;;;;;6.41;98.57;102175.88;5088453;28;20024;-65
2023/10/16 07:47:39;;;;;;;14.13;10.65;;;;;;;6.47;99.12;102167.81;5085475;28;20035;-65
2023/10/16 07:50:07;;;;;;;13.55;10.57;;;;;;;6.47;99.14;102165.19;5073839;28;20049;-64
2023/10/16 07:52:33;;;;;;;12.52;10.25;;;;;;;6.52;99.21;102168.56;5074193;28;20024;-65
2023/10/16 07:54:59;;;;;;;11.45;9.77;;;;;;;6.59;99.42;102171.94;5073722;28;20027;-65
2023/10/16 07:57:24;;;;;;;11.02;9.63;;;;;;;6.59;99.34;102164.88;5091492;28;20032;-65
2023/10/16 07:59:56;;;;;;;12.55;9.70;;;;;;;6.69;99.75;102173.44;5073329;28;20128;-64
2023/10/16 08:02:21;;;;;;;14.18;9.68;;;;;;;6.73;99.73;102179.50;5091917;28;20584;-64
2023/10/16 08:04:51;;;;;;;20.02;18.45;;;;;;;6.62;100.00;102171.84;5091685;28;20028;-64
2023/10/16 08:07:18;;;;;;;20.52;18.58;;;;;;;6.65;100.00;102170.88;5073412;28;20414;-64
2023/10/16 08:12:18;;;;;;;13.48;10.02;;;;;;;6.83;100.00;102170.44;5091576;28;20397;-64
2023/10/16 08:14:45;;;;;;;13.23;9.88;;;;;;;6.90;100.00;102172.00;5091610;28;20188;-64
2023/10/16 08:17:23;;;;;;;14.70;10.27;;;;;;;6.96;100.00;102170.97;5091391;28;20031;-64
2023/10/16 08:19:52;;;;;;;18.55;9.82;;;;;;;7.02;100.00;102173.44;5091163;28;20032;-65
2023/10/16 08:22:17;;;;;;;10.48;8.80;;;;;;;7.08;100.00;102180.34;5091597;28;20118;-64
2023/10/16 08:25:00;;;;;;;13.13;10.38;;;;;;;7.05;100.00;102163.66;5090986;28;20027;-64
2023/10/16 08:30:33;;;;;;;13.93;9.48;;;;;;;7.28;100.00;102180.69;5091624;28;20089;-64
2023/10/16 08:33:09;;;;;;;11.88;9.48;;;;;;;7.35;100.00;102176.94;5091400;28;20081;-65
2023/10/16 08:35:38;;;;;;;10.55;9.50;;;;;;;7.36;100.00;102168.09;5091143;28;20030;-64
2023/10/16 08:38:13;;;;;;;11.13;9.23;;;;;;;7.46;100.00;102168.69;5072620;28;20012;-65
2023/10/16 08:40:44;;;;;;;16.33;8.63;;;;;;;7.49;100.00;102164.19;5090397;28;20550;-65
2023/10/16 08:43:10;;;;;;;14.73;9.95;;;;;;;7.54;100.00;102169.34;5091230;28;20099;-64
2023/10/16 08:45:48;;;;;;;13.05;9.27;;;;;;;7.50;100.00;102157.13;5072931;28;20057;-65
2023/10/16 08:48:17;;;;;;;17.65;15.93;;;;;;;7.46;100.00;102156.31;5090917;28;20111;-65
2023/10/16 08:50:52;;;;;;;11.07;9.18;;;;;;;7.65;100.00;102164.63;5090878;28;20077;-64
2023/10/16 08:53:33;;;;;;;10.45;9.18;;;;;;;7.77;100.00;102170.47;5091341;28;20032;-65
2023/10/16 08:55:58;;;;;;;18.40;16.75;;;;;;;7.69;100.00;102171.53;5090824;28;20089;-64
2023/10/16 08:58:24;;;;;;;11.10;9.98;;;;;;;7.87;100.00;102175.41;5094611;28;20040;-64
2023/10/16 09:00:53;;;;;;;17.98;16.23;;;;;;;7.85;100.00;102182.56;5094970;28;20024;-64
2023/10/16 09:03:22;;;;;;;13.43;8.77;;;;;;;8.06;100.00;102182.78;5076937;28;20032;-64
2023/10/16 09:05:48;;;;;;;14.98;8.52;;;;;;;8.11;100.00;102164.97;5094922;28;20446;-64
2023/10/16 09:08:14;;;;;;;11.75;9.25;;;;;;;8.28;100.00;102177.69;5094949;28;20047;-64
2023/10/16 09:10:41;;;;;;;11.85;8.77;;;;;;;8.41;100.00;102173.75;5075704;28;20016;-65
2023/10/16 09:13:17;;;;;;;8.82;7.93;;;;;;;8.50;100.00;102178.78;5094925;28;20420;-65
2023/10/16 09:15:45;;;;;;;8.93;7.93;;;;;;;8.50;100.00;102169.94;5094653;28;20520;-65
2023/10/16 09:18:14;;;;;;;11.80;8.50;;;;;;;8.68;100.00;102173.75;5094648;28;20024;-65
2023/10/16 09:20:43;;;;;;;7.97;7.10;;;;;;;8.78;100.00;102177.84;5056537;28;20028;-65
2023/10/16 09:23:14;;;;;;;14.07;12.90;;;;;;;8.72;100.00;102170.97;5074284;28;20043;-65
2023/10/16 09:25:46;;;;;;;9.90;6.88;;;;;;;8.89;100.00;102178.34;5073462;28;20078;-65
2023/10/16 09:28:22;;;;;;;9.77;8.18;;;;;;;9.00;100.00;102177.94;5089847;28;20425;-64
2023/10/16 09:30:49;;;;;;;11.45;6.10;;;;;;;9.08;100.00;102178.56;5090817;28;20020;-65
2023/10/16 09:33:15;;;;;;;12.75;11.55;;;;;;;9.14;99.68;102177.47;5073992;28;20027;-65
2023/10/16 09:35:43;;;;;;;13.57;12.23;;;;;;;9.21;100.00;102166.59;5073874;28;20455;-65
2023/10/16 09:38:23;;;;;;;7.55;5.80;;;;;;;9.30;99.32;102173.34;5075822;28;20025;-65
2023/10/16 09:40:58;;;;;;;7.35;5.68;;;;;;;9.41;99.44;102178.25;5093499;28;20386;-65
2023/10/16 09:43:27;;;;;;;9.48;5.95;;;;;;;9.44;97.75;102173.72;5075492;28;20471;-65
2023/10/16 09:48:42;;;;;;;10.90;9.90;;;;;;;9.59;97.69;102151.03;5092615;28;20613;-64
2023/10/16 09:51:09;;;;;;;6.45;5.80;;;;;;;9.82;97.40;102171.38;5093637;28;20026;-65
2023/10/16 09:53:35;;;;;;;12.18;10.95;;;;;;;9.95;99.80;102175.31;5093789;28;20471;-65
2023/10/16 09:56:02;;;;;;;9.68;5.45;;;;;;;10.14;98.32;102171.91;5093871;28;20463;-64
2023/10/16 09:58:35;;;;;;;16.58;5.68;;;;;;;10.27;96.71;102167.03;5093486;28;20097;-65
2023/10/16 10:01:10;;;;;;;4.82;4.30;;;;;;;10.37;93.14;102171.03;5092746;28;20514;-65
2023/10/16 10:03:36;;;;;;;8.80;7.95;;;;;;;10.41;91.00;102167.31;5076934;28;20102;-65
2023/10/16 10:06:12;;;;;;;8.90;8.10;;;;;;;10.53;89.93;102173.91;5075315;28;20024;-66
2023/10/16 10:11:44;;;;;;;5.63;4.07;;;;;;;10.97;91.65;102176.47;5093127;28;20509;-66
2023/10/16 10:14:26;;;;;;;8.30;7.45;;;;;;;11.08;88.08;102174.22;5093801;28;20456;-66
2023/10/16 10:16:58;;;;;;;10.23;8.10;;;;;;;11.22;85.62;102171.81;5093625;28;20095;-66
2023/10/16 10:19:39;;;;;;;5.28;4.18;;;;;;;11.54;83.65;102166.84;5074958;28;20035;-66
2023/10/16 10:22:18;;;;;;;8.30;5.07;;;;;;;11.73;84.37;102164.19;5093162;28;20019;-66
2023/10/16 10:24:56;;;;;;;9.57;7.72;;;;;;;11.92;82.38;102156.22;5074655;28;20024;-66
2023/10/16 10:27:24;;;;;;;8.77;4.23;;;;;;;12.32;82.90;102163.13;5093328;28;20028;-65
2023/10/16 10:29:55;;;;;;;4.80;4.40;;;;;;;12.61;79.40;102171.50;5092714;28;20028;-65
2023/10/16 10:32:21;;;;;;;4.80;4.05;;;;;;;12.90;78.77;102172.69;5092932;28;20028;-66
2023/10/16 10:34:47;;;;;;;3.65;3.35;;;;;;;13.25;77.37;102173.56;5073982;28;20028;-65
2023/10/16 10:37:47;;;;;;;6.35;5.75;;;;;;;13.45;76.08;102164.47;5092910;28;20499;-66
2023/10/16 10:40:22;;;;;;;5.85;5.05;;;;;;;13.60;70.86;102168.97;5072337;28;20043;-65
2023/10/16 10:43:02;;;;;;;6.95;5.60;;;;;;;13.65;71.63;102166.06;5090311;28;20024;-66
2023/10/16 10:45:35;;;;;;;3.10;2.90;;;;;;;14.24;71.74;102160.97;5059983;28;20028;-65
2023/10/16 10:48:11;;;;;;;6.82;5.40;;;;;;;14.13;69.89;102163.41;5092794;28;20012;-65
2023/10/16 10:50:40;;;;;;;5.95;5.43;;;;;;;14.25;70.04;102170.72;5092300;28;20034;-66
2023/10/16 10:53:20;;;;;;;6.38;5.78;;;;;;;14.46;69.36;102164.13;5092460;28;20036;-65
2023/10/16 10:55:54;;;;;;;9.75;5.22;;;;;;;14.63;67.10;102165.00;5092373;28;20440;-65
2023/10/16 10:58:23;;;;;;;4.63;4.20;;;;;;;14.69;61.30;102149.41;5074118;28;20483;-65
2023/10/16 11:00:50;;;;;;;7.32;4.85;;;;;;;14.76;61.63;102161.50;5092661;28;20036;-66
2023/10/16 11:03:41;;;;;;;4.53;4.20;;;;;;;14.80;63.51;102164.00;5074267;28;20039;-65
2023/10/16 11:06:15;;;;;;;5.70;4.60;;;;;;;14.99;60.86;102161.91;5074280;28;20077;-66
2023/10/16 11:08:42;;;;;;;4.38;4.03;;;;;;;15.14;59.94;102160.13;5092300;28;20020;-66
2023/10/16 11:11:10;;;;;;;4.65;4.25;;;;;;;15.21;60.46;102151.63;5091501;28;20058;-65
2023/10/16 11:13:44;;;;;;;6.40;3.92;;;;;;;15.34;60.66;102153.53;5037359;28;20024;-66
2023/10/16 11:16:10;;;;;;;5.22;4.43;;;;;;;15.14;61.32;102139.53;5080358;28;20556;-66
2023/10/16 11:18:37;;;;;;;6.05;4.07;;;;;;;15.12;58.79;102145.97;5091529;28;20032;-66
2023/10/16 11:21:06;;;;;;;5.30;4.45;;;;;;;14.86;62.19;102148.41;5091915;28;20031;-66
2023/10/16 11:23:38;;;;;;;7.93;4.93;;;;;;;14.84;63.07;102136.91;5074391;28;20035;-66
2023/10/16 11:26:05;;;;;;;5.90;4.10;;;;;;;14.93;62.13;102141.72;5091568;28;20519;-66
2023/10/16 11:28:35;;;;;;;11.77;5.03;;;;;;;14.91;62.11;102142.75;5091978;28;20077;-66
2023/10/16 11:31:01;;;;;;;6.82;4.72;;;;;;;14.91;63.38;102126.69;5092305;28;20031;-66
2023/10/16 11:33:34;;;;;;;4.90;4.47;;;;;;;15.03;62.61;102131.31;5087603;28;20028;-66
2023/10/16 11:36:03;;;;;;;5.47;5.07;;;;;;;14.95;62.77;102134.47;5086418;28;20028;-66
2023/10/16 11:38:32;;;;;;;7.60;4.57;;;;;;;15.12;59.57;102125.41;5091210;28;20020;-65
2023/10/16 11:41:05;;;;;;;5.00;4.30;;;;;;;15.58;56.54;102132.34;5091542;28;20052;-65
2023/10/16 11:43:34;;;;;;;5.22;4.07;;;;;;;15.40;55.32;102121.84;5091848;28;20057;-66
2023/10/16 11:46:05;;;;;;;3.75;3.45;;;;;;;15.72;59.91;102113.59;5074046;28;20080;-65
2023/10/16 11:51:08;;;;;;;4.97;4.57;;;;;;;15.90;54.66;102114.22;5091701;28;20463;-65
2023/10/16 11:53:36;;;;;;;4.03;3.72;;;;;;;16.08;59.68;102114.84;5091548;28;20712;-65
2023/10/16 11:56:01;;;;;;;4.05;3.75;;;;;;;15.79;55.43;102108.69;5072472;28;20028;-65
2023/10/16 11:58:27;;;;;;;6.65;4.35;;;;;;;15.24;58.22;102112.19;5073493;28;20051;-65
2023/10/16 12:00:54;;;;;;;5.55;4.38;;;;;;;14.90;58.03;102104.41;5091856;28;20386;-65
2023/10/16 12:03:26;;;;;;;4.43;4.00;;;;;;;14.75;60.22;102102.66;5092346;28;20106;-65
2023/10/16 12:05:52;;;;;;;5.32;4.82;;;;;;;14.79;61.79;102100.66;5091583;28;20260;-65
2023/10/16 12:08:18;;;;;;;5.65;4.68;;;;;;;14.82;60.26;102095.13;5073661;28;20035;-66
2023/10/16 12:10:46;;;;;;;6.10;5.50;;;;;;;14.90;58.25;102098.19;5091333;28;20020;-65
2023/10/16 12:13:15;;;;;;;5.32;4.78;;;;;;;15.08;60.61;102090.84;5073697;28;20574;-65
2023/10/16 12:15:49;;;;;;;8.57;4.53;;;;;;;14.77;59.31;102098.09;5091188;28;20051;-65
2023/10/16 12:18:17;;;;;;;5.57;4.68;;;;;;;14.37;59.63;102088.88;5091402;28;20103;-66
2023/10/16 12:20:43;;;;;;;6.05;4.97;;;;;;;14.02;62.80;102084.59;5091520;28;20020;-65
2023/10/16 12:23:10;;;;;;;5.63;4.93;;;;;;;13.83;63.23;102079.47;5073434;28;20502;-66
2023/10/16 12:25:36;;;;;;;5.60;5.10;;;;;;;13.77;62.64;102073.63;5090421;28;20024;-65
2023/10/16 12:28:02;;;;;;;8.27;5.32;;;;;;;13.68;62.73;102068.75;5091354;28;20080;-65
2023/10/16 12:30:28;;;;;;;6.47;5.88;;;;;;;13.72;65.14;102073.88;5091677;28;20024;-65
2023/10/16 12:32:54;;;;;;;6.30;5.80;;;;;;;13.63;65.12;102055.66;5095456;28;20067;-65
2023/10/16 12:35:22;;;;;;;6.25;5.10;;;;;;;13.60;64.95;102064.72;5095456;28;20491;-65
2023/10/16 12:37:48;;;;;;;5.47;5.03;;;;;;;13.56;66.07;102064.97;5095067;28;20024;-66
2023/10/16 12:40:34;;;;;;;5.40;4.95;;;;;;;13.53;64.66;102062.47;5094868;28;20507;-65
2023/10/16 12:43:00;;;;;;;6.45;5.40;;;;;;;13.43;63.04;102063.94;5095501;28;20032;-65
2023/10/16 12:45:26;;;;;;;3.70;2.55;;;;;;;13.66;66.58;102060.84;5077160;28;20024;-65
2023/10/16 12:47:56;;;;;;;2.80;2.60;;;;;;;13.49;67.57;102045.75;5094643;28;20050;-65
2023/10/16 12:50:25;;;;;;;8.60;5.82;;;;;;;13.28;66.51;102062.97;5077145;28;20040;-65
2023/10/16 12:52:51;;;;;;;;;;;;;;;13.52;67.59;102050.06;5077389;28;20394;-66
2023/10/16 12:55:17;;;;;;;3.13;2.80;;;;;;;13.51;67.15;102054.56;5094805;28;19912;-65
2023/10/16 12:57:44;;;;;;;5.75;5.20;;;;;;;13.38;65.90;102051.72;5094862;28;20395;-65
2023/10/16 13:00:20;;;;;;;6.38;5.32;;;;;;;13.26;64.54;102033.66;5088426;28;20488;-66
2023/10/16 13:02:46;;;;;;;5.93;5.05;;;;;;;13.24;64.15;102062.25;5086605;28;21149;-65
2023/10/16 13:05:15;;;;;;;7.03;5.78;;;;;;;13.21;63.85;102061.53;5055870;28;20029;-66
2023/10/16 13:07:41;;;;;;;7.88;5.28;;;;;;;13.18;67.85;102059.94;5076584;28;20026;-65
2023/10/16 13:10:14;;;;;;;7.68;5.55;;;;;;;13.08;64.65;102053.34;5074131;28;20027;-65
2023/10/16 13:12:43;;;;;;;6.10;5.45;;;;;;;13.04;66.40;102044.63;5074665;28;20024;-66
2023/10/16 13:15:24;;;;;;;5.78;5.13;;;;;;;13.03;65.39;102053.59;5074528;28;20021;-65
2023/10/16 13:17:50;;;;;;;5.95;5.32;;;;;;;13.08;66.98;102051.53;5074149;28;20029;-65
2023/10/16 13:20:19;;;;;;;6.45;5.95;;;;;;;12.98;69.49;102052.13;5082323;28;20073;-65
2023/10/16 13:22:52;;;;;;;6.83;5.80;;;;;;;13.08;68.35;102048.00;5090736;28;20028;-65
2023/10/16 13:25:23;;;;;;;5.07;3.30;;;;;;;13.36;67.98;102032.22;5093360;28;20301;-65
2023/10/16 13:27:51;;;;;;;7.13;6.18;;;;;;;13.17;69.03;102042.16;5086206;28;20031;-65
2023/10/16 13:30:17;;;;;;;6.57;6.03;;;;;;;13.36;65.59;102044.72;5073754;28;20026;-65
2023/10/16 13:32:46;;;;;;;6.72;6.07;;;;;;;13.70;66.73;102032.13;5070244;28;20036;-65
2023/10/16 13:35:13;;;;;;;6.03;5.53;;;;;;;14.43;63.92;102040.31;5090471;28;20062;-66
2023/10/16 13:37:42;;;;;;;6.25;5.38;;;;;;;14.79;61.98;102041.72;5076038;28;20074;-66
2023/10/16 13:40:21;;;;;;;6.20;5.60;;;;;;;14.42;61.98;102041.28;5074109;28;20032;-65